Strona główna
METAR-TAF:

METAR-TAF

Lotnisko :

Port lotniczy Luleå

Luleå, Szwecja

Szerokość geograficzna: 65-33N, Długość geograficzna: 022-08E, wysokość: 17 m

Aktualna obserwacja pogody

Raport powstał 19 minut temu, godzina 14:20 UTC
Wiatr 5 kt od północ
Temperatura 9°C
Wilgotność 87%
Ciśnienie 1009 hPa
Widzialność 10 km lub więcej
Przerywane chmury na wysokości 1700 ft
Zachmurzenie całkowite na wysokości 2000 ft

METAR: ESPA 151420Z 36005KT 9999 BKN017 OVC020 09/07 Q1009

czas: 16:39 (14:39 UTC)

Prognoza

Raport powstał 3 godziny i 9 minut temu, godzina 11:30 UTC
Prognoza ważna od 15 godzina 12 UTC do 15 godzina 19 UTC
Wiatr 8 kt od północ
Widzialność 10 km lub więcej
Przerywane chmury na wysokości 1800 ft
Prawdopodobieństwo 40%
od 15 godzina 12 UTC do 15 godzina 15 UTC
Widzialność: 3000 m
Przerywane chmury na wysokości 700 ft
Przerywane chmury na wysokości 3000 ft, Cumulonimbus.
przelotny opad deszczu, zamglenie

TAF: ESPA 151130Z 1512/1519 36008KT 9999 BKN018 PROB40 1512/1515 3000 SHRA BR BKN007 BKN030CB

Obserwacja i prognoza pogody dla ponad 4000 lotnisk (raport METAR i TAF).

Dostępne stacje oznaczono żółtymi i czerwonymi punktami na mapie.

Najedź kursorem aby zobaczyć nazwę stacji.

Kliknij aby zobaczyć obserwacje i prognozy pogody.

Aby zmienić mapę: kliknij na zielony przycisk z czarnym krzyżykiem, aby powiększyć; na zielony przycisk z myślnikiem, aby pomniejszyć; na zielone strzałki, aby przejść do map sąsiednich.


METAR-TAF: